Time;durP1;ratioP1;P1;durP2;ratioP2;P2;SDS_P1;SDS_P2;PMS_P1;PMS_P2;Temp;Humidity;BMP_temperature;BMP_pressure;BME280_temperature;BME280_humidity;BME280_pressure;Samples;Min_cycle;Max_cycle;Signal;HPM_P1;HPM_P2
2023/06/08 00:00:18;;;;;;;1.88;1.48;;;20.30;43.80;;;;;;5101565;28;20165;-80
2023/06/08 00:02:45;;;;;;;1.55;1.45;;;20.30;43.80;;;;;;5118208;28;20184;-84
2023/06/08 00:05:13;;;;;;;1.80;1.70;;;20.30;43.80;;;;;;5103211;28;20160;-81
2023/06/08 00:07:41;;;;;;;1.63;1.52;;;20.30;44.00;;;;;;5117590;28;20174;-80
2023/06/08 00:10:09;;;;;;;2.15;1.95;;;20.30;43.90;;;;;;5101027;28;20177;-80
2023/06/08 00:12:35;;;;;;;1.90;1.70;;;20.30;43.90;;;;;;5100505;28;20650;-82
2023/06/08 00:15:01;;;;;;;1.80;1.70;;;20.30;43.80;;;;;;5100392;28;20190;-81
2023/06/08 00:17:31;;;;;;;1.67;1.58;;;20.30;44.00;;;;;;5117830;28;20156;-81
2023/06/08 00:19:59;;;;;;;1.65;1.55;;;20.30;44.00;;;;;;5103014;28;20176;-81
2023/06/08 00:22:29;;;;;;;2.22;1.60;;;20.30;44.00;;;;;;5106734;28;20173;-81
2023/06/08 00:24:56;;;;;;;2.65;1.67;;;20.30;44.00;;;;;;5106103;28;20240;-80
2023/06/08 00:27:23;;;;;;;2.17;1.58;;;20.30;44.00;;;;;;5122642;28;20157;-83
2023/06/08 00:29:51;;;;;;;1.52;1.40;;;20.20;43.90;;;;;;5105690;28;20169;-81
2023/06/08 00:32:16;;;;;;;1.65;1.25;;;20.20;43.90;;;;;;5122064;28;20220;-81
2023/06/08 00:34:42;;;;;;;1.33;1.23;;;20.30;44.10;;;;;;5104989;28;20232;-80
2023/06/08 00:37:07;;;;;;;1.63;1.52;;;20.30;44.70;;;;;;5106574;28;20149;-81
2023/06/08 00:39:33;;;;;;;1.52;1.42;;;20.20;44.00;;;;;;5088233;28;20236;-81
2023/06/08 00:42:00;;;;;;;1.80;1.30;;;20.20;44.00;;;;;;5088394;28;20188;-80
2023/06/08 00:44:26;;;;;;;1.65;1.55;;;20.20;44.10;;;;;;5071023;28;20228;-82
2023/06/08 00:46:54;;;;;;;1.55;1.40;;;20.30;44.10;;;;;;5106252;28;20203;-80
2023/06/08 00:49:23;;;;;;;1.50;1.40;;;20.30;44.20;;;;;;5106943;28;20149;-80
2023/06/08 00:51:48;;;;;;;1.70;1.40;;;20.30;44.30;;;;;;5106092;28;20164;-80
2023/06/08 00:54:15;;;;;;;1.50;1.40;;;20.30;44.30;;;;;;5087918;28;20550;-81
2023/06/08 00:56:48;;;;;;;1.50;1.40;;;20.30;44.20;;;;;;5088463;28;20156;-80
2023/06/08 00:59:17;;;;;;;2.58;1.75;;;20.20;44.20;;;;;;5072512;28;20161;-80
2023/06/08 01:01:44;;;;;;;1.88;1.60;;;20.20;44.20;;;;;;5088068;28;20210;-82
2023/06/08 01:04:14;;;;;;;1.33;1.23;;;20.20;44.20;;;;;;5087379;28;20172;-82
2023/06/08 01:06:45;;;;;;;1.83;1.70;;;20.30;44.20;;;;;;5087973;28;20258;-81
2023/06/08 01:09:44;;;;;;;1.10;1.00;;;20.30;44.30;;;;;;5071177;28;20161;-80
2023/06/08 01:12:32;;;;;;;1.33;1.17;;;20.20;44.20;;;;;;5087859;28;20716;-81
2023/06/08 01:15:15;;;;;;;1.40;1.30;;;20.20;44.20;;;;;;5087836;28;20156;-81
2023/06/08 01:17:47;;;;;;;1.92;1.50;;;20.20;44.20;;;;;;5090116;28;20160;-82
2023/06/08 01:20:36;;;;;;;1.75;1.48;;;20.20;44.10;;;;;;5087958;28;20236;-85
2023/06/08 01:23:34;;;;;;;1.73;1.63;;;20.20;44.10;;;;;;5090740;28;20639;-82
2023/06/08 01:26:03;;;;;;;1.30;1.20;;;20.20;44.00;;;;;;5091337;28;20170;-81
2023/06/08 01:28:31;;;;;;;1.30;1.20;;;20.30;44.10;;;;;;5087845;28;20553;-81
2023/06/08 01:30:58;;;;;;;1.33;1.23;;;20.30;44.10;;;;;;5086389;28;20177;-80
2023/06/08 01:33:26;;;;;;;1.35;1.25;;;20.20;44.10;;;;;;5087276;28;20228;-80
2023/06/08 01:36:06;;;;;;;1.60;1.40;;;20.20;44.20;;;;;;5118139;28;20314;-81
2023/06/08 01:38:45;;;;;;;2.15;1.55;;;20.20;44.00;;;;;;5125683;28;20152;-83
2023/06/08 01:41:16;;;;;;;1.13;1.02;;;20.20;44.20;;;;;;5124922;28;20176;-80
2023/06/08 01:43:44;;;;;;;1.20;1.10;;;20.20;44.20;;;;;;5107579;28;20239;-80
2023/06/08 01:46:11;;;;;;;1.60;1.40;;;20.20;44.00;;;;;;5107063;28;20152;-83
2023/06/08 01:48:38;;;;;;;1.50;1.30;;;20.20;44.00;;;;;;5107316;28;20188;-81
2023/06/08 01:51:04;;;;;;;1.30;1.20;;;20.20;44.10;;;;;;5107868;28;20603;-80
2023/06/08 01:53:34;;;;;;;1.25;1.10;;;20.20;44.20;;;;;;5106968;28;20159;-81
2023/06/08 01:56:01;;;;;;;1.38;1.27;;;20.20;44.30;;;;;;5107222;28;20156;-80
2023/06/08 01:58:27;;;;;;;1.35;1.25;;;20.20;44.20;;;;;;5124005;28;20144;-81
2023/06/08 02:00:56;;;;;;;1.17;1.08;;;20.20;44.10;;;;;;5106964;28;20205;-80
2023/06/08 02:03:25;;;;;;;1.70;1.40;;;20.20;44.20;;;;;;5107069;28;20156;-80
2023/06/08 02:05:51;;;;;;;1.30;1.15;;;20.20;44.10;;;;;;5124128;28;20153;-82
2023/06/08 02:08:17;;;;;;;1.48;1.27;;;20.20;44.10;;;;;;5123785;28;20220;-81
2023/06/08 02:10:43;;;;;;;1.10;1.05;;;20.20;44.10;;;;;;5124729;28;20152;-81
2023/06/08 02:13:10;;;;;;;1.73;1.50;;;20.20;44.20;;;;;;5106415;28;20156;-81
2023/06/08 02:15:36;;;;;;;1.48;1.38;;;20.20;44.20;;;;;;5107035;28;20188;-81
2023/06/08 02:18:03;;;;;;;1.00;0.90;;;20.20;44.00;;;;;;5124066;28;20186;-83
2023/06/08 02:20:33;;;;;;;1.30;1.10;;;20.20;44.00;;;;;;5106616;28;20622;-82
2023/06/08 02:22:58;;;;;;;1.30;1.13;;;20.20;44.00;;;;;;5122993;28;20247;-80
2023/06/08 02:25:24;;;;;;;1.67;1.42;;;20.20;44.10;;;;;;5106458;28;20195;-81
2023/06/08 02:27:51;;;;;;;1.27;1.17;;;20.20;44.10;;;;;;5124565;28;20149;-82
2023/06/08 02:30:17;;;;;;;1.48;1.38;;;20.20;44.20;;;;;;5123681;28;20156;-82
2023/06/08 02:32:45;;;;;;;1.25;1.13;;;20.20;44.20;;;;;;5105910;28;20163;-82
2023/06/08 02:35:11;;;;;;;1.10;1.00;;;20.20;44.20;;;;;;5098951;28;20252;-81
2023/06/08 02:37:37;;;;;;;1.48;1.25;;;20.20;44.20;;;;;;5104082;28;20168;-82
2023/06/08 02:40:05;;;;;;;1.20;1.10;;;20.20;44.20;;;;;;5086375;28;20166;-81
2023/06/08 02:42:32;;;;;;;1.20;1.10;;;20.20;44.20;;;;;;5084431;28;20237;-81
2023/06/08 02:45:00;;;;;;;1.30;1.17;;;20.20;44.30;;;;;;5085602;28;20164;-81
2023/06/08 02:47:27;;;;;;;1.27;1.17;;;20.20;44.20;;;;;;5103520;28;20152;-81
2023/06/08 02:49:53;;;;;;;3.47;1.08;;;20.10;44.20;;;;;;5103066;28;20149;-81
2023/06/08 02:52:18;;;;;;;1.23;1.10;;;20.10;44.20;;;;;;5103638;28;20165;-82
2023/06/08 02:54:44;;;;;;;1.25;1.15;;;20.10;44.20;;;;;;5084311;28;20172;-82
2023/06/08 02:57:10;;;;;;;1.42;1.17;;;20.20;44.20;;;;;;5083914;28;20534;-81
2023/06/08 02:59:36;;;;;;;1.10;1.00;;;20.10;44.20;;;;;;5084768;28;20179;-83
2023/06/08 03:02:02;;;;;;;1.27;1.13;;;20.10;44.30;;;;;;5084275;28;20176;-83
2023/06/08 03:04:28;;;;;;;1.13;1.02;;;20.10;44.20;;;;;;5067475;28;20164;-82
2023/06/08 03:06:54;;;;;;;1.27;1.13;;;20.10;44.30;;;;;;5067336;28;20167;-83
2023/06/08 03:09:21;;;;;;;1.52;1.42;;;20.20;44.20;;;;;;5067740;28;20583;-84
2023/06/08 03:11:47;;;;;;;1.35;1.10;;;20.10;44.10;;;;;;5083845;28;20215;-82
2023/06/08 03:14:15;;;;;;;1.50;1.40;;;20.20;44.20;;;;;;5101741;28;20161;-82
2023/06/08 03:16:41;;;;;;;1.15;1.05;;;20.10;44.20;;;;;;5066862;28;20301;-82
2023/06/08 03:19:06;;;;;;;1.40;1.15;;;20.10;44.20;;;;;;5066751;28;20234;-81
2023/06/08 03:21:32;;;;;;;1.40;1.15;;;20.10;44.20;;;;;;5067705;28;20595;-82
2023/06/08 03:23:58;;;;;;;1.40;1.30;;;20.10;44.20;;;;;;5084259;28;20177;-82
2023/06/08 03:26:23;;;;;;;1.13;1.02;;;20.20;44.20;;;;;;5083546;28;20240;-82
2023/06/08 03:28:49;;;;;;;1.88;1.20;;;20.10;44.20;;;;;;5082562;28;20519;-82
2023/06/08 03:31:15;;;;;;;1.30;1.20;;;20.10;44.20;;;;;;5083745;28;20511;-81
2023/06/08 03:33:40;;;;;;;1.40;1.30;;;20.20;44.20;;;;;;5102641;28;20180;-82
2023/06/08 03:36:06;;;;;;;1.35;1.25;;;20.20;44.20;;;;;;5084749;28;20220;-81
2023/06/08 03:38:33;;;;;;;0.80;0.80;;;20.20;44.90;;;;;;5103412;28;20629;-83
2023/06/08 03:40:58;;;;;;;1.38;1.27;;;20.20;44.20;;;;;;5084753;28;20153;-81
2023/06/08 03:43:24;;;;;;;1.00;0.90;;;20.20;44.20;;;;;;5103205;28;20215;-81
2023/06/08 03:45:50;;;;;;;1.52;1.02;;;20.10;44.20;;;;;;5085586;28;20212;-83
2023/06/08 03:48:16;;;;;;;1.27;1.10;;;20.30;44.20;;;;;;5084774;28;20169;-82
2023/06/08 03:50:45;;;;;;;1.00;1.00;;;20.20;44.20;;;;;;5084465;28;20182;-81
2023/06/08 03:53:12;;;;;;;1.95;1.05;;;20.30;44.20;;;;;;5084876;28;20237;-82
2023/06/08 03:55:38;;;;;;;1.65;1.15;;;20.30;44.20;;;;;;5068173;28;20168;-82
2023/06/08 03:58:04;;;;;;;1.55;1.08;;;20.20;44.00;;;;;;5084672;28;20155;-81
2023/06/08 04:00:30;;;;;;;1.27;0.98;;;20.30;44.10;;;;;;5083512;28;20199;-83
2023/06/08 04:02:57;;;;;;;1.38;1.27;;;20.30;44.10;;;;;;5083343;28;20188;-81
2023/06/08 04:05:22;;;;;;;1.25;1.15;;;20.30;44.10;;;;;;5066818;28;20169;-81
2023/06/08 04:07:50;;;;;;;2.33;1.20;;;20.30;44.00;;;;;;5067578;28;20161;-82
2023/06/08 04:10:17;;;;;;;1.20;1.10;;;20.30;44.00;;;;;;5067287;28;20169;-82
2023/06/08 04:12:43;;;;;;;1.95;1.20;;;20.40;44.00;;;;;;5067792;28;20168;-82
2023/06/08 04:15:10;;;;;;;1.45;1.23;;;20.40;44.00;;;;;;5084531;28;20180;-81
2023/06/08 04:17:40;;;;;;;1.40;1.17;;;20.40;43.90;;;;;;5084935;28;20167;-81
2023/06/08 04:20:06;;;;;;;1.30;1.10;;;20.40;43.90;;;;;;5084815;28;20493;-83
2023/06/08 04:22:32;;;;;;;1.50;1.30;;;20.40;43.80;;;;;;5102057;28;20195;-82
2023/06/08 04:24:58;;;;;;;1.30;1.20;;;20.40;43.80;;;;;;5068052;28;20164;-82
2023/06/08 04:27:24;;;;;;;1.33;1.23;;;20.40;43.80;;;;;;5083864;28;20175;-82
2023/06/08 04:29:52;;;;;;;1.88;1.20;;;20.40;43.80;;;;;;5067962;28;20175;-82
2023/06/08 04:32:19;;;;;;;1.20;1.10;;;20.40;43.80;;;;;;5102760;28;20157;-82
2023/06/08 04:34:45;;;;;;;1.08;1.05;;;20.40;43.70;;;;;;5085139;28;20722;-81
2023/06/08 04:37:13;;;;;;;1.20;1.10;;;20.50;43.70;;;;;;5068231;28;20179;-81
2023/06/08 04:39:41;;;;;;;1.50;1.30;;;20.50;43.80;;;;;;5084812;28;20183;-81
2023/06/08 04:42:08;;;;;;;1.13;1.02;;;20.50;43.70;;;;;;5085079;28;20195;-82
2023/06/08 04:44:34;;;;;;;1.35;1.25;;;20.50;43.70;;;;;;5069077;28;20169;-82
2023/06/08 04:47:01;;;;;;;1.40;1.20;;;20.60;43.70;;;;;;5068494;28;20619;-82
2023/06/08 04:49:31;;;;;;;1.10;1.00;;;20.50;43.70;;;;;;5068772;28;20175;-81
2023/06/08 04:51:59;;;;;;;1.27;1.10;;;20.60;43.70;;;;;;5068316;28;20699;-82
2023/06/08 04:54:26;;;;;;;1.20;1.10;;;20.50;43.70;;;;;;5067934;28;20173;-82
2023/06/08 04:56:58;;;;;;;1.23;1.05;;;20.60;43.70;;;;;;5084632;28;20176;-82
2023/06/08 04:59:25;;;;;;;1.67;1.30;;;20.60;43.70;;;;;;5084464;28;20239;-81
2023/06/08 05:01:50;;;;;;;1.23;1.13;;;20.50;43.70;;;;;;5084021;28;20271;-81
2023/06/08 05:04:16;;;;;;;1.10;1.00;;;20.50;43.90;;;;;;5082980;28;20181;-81
2023/06/08 05:06:45;;;;;;;1.10;1.00;;;20.50;43.90;;;;;;5087701;28;20157;-80
2023/06/08 05:09:12;;;;;;;1.73;1.30;;;20.50;43.90;;;;;;5088978;28;20149;-81
2023/06/08 05:11:38;;;;;;;1.20;1.10;;;20.50;44.00;;;;;;5072071;28;20172;-81
2023/06/08 05:14:10;;;;;;;1.30;1.20;;;20.50;44.10;;;;;;5072250;28;20194;-82
2023/06/08 05:16:37;;;;;;;1.17;1.08;;;20.40;44.00;;;;;;5088281;28;20176;-82
2023/06/08 05:19:07;;;;;;;3.08;1.10;;;20.40;43.90;;;;;;5071851;28;20176;-81
2023/06/08 05:21:33;;;;;;;1.10;1.00;;;20.40;43.90;;;;;;5088000;28;20283;-83
2023/06/08 05:24:01;;;;;;;1.25;1.15;;;20.50;44.00;;;;;;5088720;28;20149;-81
2023/06/08 05:26:29;;;;;;;1.38;1.15;;;20.50;44.10;;;;;;5086913;28;20153;-83
2023/06/08 05:28:55;;;;;;;1.20;1.10;;;20.50;44.00;;;;;;5070277;28;20182;-82
2023/06/08 05:31:21;;;;;;;1.10;1.00;;;20.60;43.90;;;;;;5087598;28;20617;-81
2023/06/08 05:33:47;;;;;;;1.38;1.20;;;20.50;43.90;;;;;;5071090;28;20169;-80
2023/06/08 05:36:13;;;;;;;1.35;1.17;;;20.50;43.80;;;;;;5069351;28;20220;-81
2023/06/08 05:38:38;;;;;;;1.42;1.33;;;20.50;43.90;;;;;;5086836;28;20252;-81
2023/06/08 05:41:06;;;;;;;1.30;1.00;;;20.50;43.90;;;;;;5105262;28;20190;-81
2023/06/08 05:43:32;;;;;;;1.25;1.15;;;20.50;44.00;;;;;;5088017;28;20203;-81
2023/06/08 05:45:57;;;;;;;1.40;1.20;;;20.50;43.90;;;;;;5071002;28;20177;-82
2023/06/08 05:48:24;;;;;;;1.45;1.35;;;20.50;44.00;;;;;;5087363;28;20164;-81
2023/06/08 05:50:50;;;;;;;1.33;1.23;;;20.50;44.00;;;;;;5086895;28;20321;-82
2023/06/08 05:53:17;;;;;;;1.40;1.20;;;20.60;43.90;;;;;;5085813;28;20631;-81
2023/06/08 05:55:44;;;;;;;1.10;1.00;;;20.60;43.90;;;;;;5086932;28;20164;-81
2023/06/08 05:58:11;;;;;;;1.80;1.23;;;20.60;43.90;;;;;;5087924;28;20215;-81
2023/06/08 06:00:36;;;;;;;1.13;1.02;;;20.60;44.30;;;;;;5088023;28;20153;-81
2023/06/08 06:03:02;;;;;;;1.23;1.10;;;20.70;44.00;;;;;;5106338;28;20221;-81
2023/06/08 06:05:28;;;;;;;1.30;1.20;;;20.60;43.90;;;;;;5088364;28;20160;-81
2023/06/08 06:07:54;;;;;;;1.05;0.93;;;20.60;44.50;;;;;;5086661;28;20171;-82
2023/06/08 06:10:19;;;;;;;1.27;1.17;;;20.60;43.90;;;;;;5087343;28;20157;-81
2023/06/08 06:12:46;;;;;;;1.40;1.30;;;20.60;43.90;;;;;;5087514;28;20180;-81
2023/06/08 06:15:13;;;;;;;1.60;1.20;;;20.60;44.00;;;;;;5087092;28;20196;-80
2023/06/08 06:17:40;;;;;;;1.15;1.05;;;20.60;44.10;;;;;;5087362;28;20262;-81
2023/06/08 06:20:06;;;;;;;1.45;1.20;;;20.50;44.10;;;;;;5105513;28;20233;-81
2023/06/08 06:22:34;;;;;;;1.30;1.20;;;20.50;44.10;;;;;;5086844;28;20181;-81
2023/06/08 06:25:00;;;;;;;2.80;1.38;;;20.50;44.10;;;;;;5086924;28;20149;-82
2023/06/08 06:27:26;;;;;;;1.45;1.30;;;20.50;44.20;;;;;;5087696;28;20176;-81
2023/06/08 06:29:52;;;;;;;2.40;1.25;;;20.60;44.00;;;;;;5086760;28;20220;-82
2023/06/08 06:32:18;;;;;;;1.42;1.30;;;20.60;44.10;;;;;;5086505;28;20192;-80
2023/06/08 06:34:43;;;;;;;1.60;1.20;;;20.60;44.00;;;;;;5070060;28;20682;-82
2023/06/08 06:37:09;;;;;;;2.20;0.95;;;20.60;44.00;;;;;;5085483;28;20226;-80
2023/06/08 06:39:35;;;;;;;1.15;1.05;;;20.60;44.10;;;;;;5103001;28;20153;-80
2023/06/08 06:42:01;;;;;;;1.10;1.00;;;20.60;44.10;;;;;;5086558;28;20193;-82
2023/06/08 06:44:27;;;;;;;1.38;1.27;;;20.60;44.20;;;;;;5085704;28;20198;-80
2023/06/08 06:46:53;;;;;;;1.23;1.13;;;20.50;44.20;;;;;;5104021;28;20153;-81
2023/06/08 06:49:20;;;;;;;1.20;1.10;;;20.50;44.70;;;;;;5103388;28;20156;-80
2023/06/08 06:51:45;;;;;;;1.30;1.17;;;20.50;45.10;;;;;;5068606;28;20259;-81
2023/06/08 06:54:12;;;;;;;1.35;1.25;;;20.50;45.10;;;;;;5084896;28;20177;-80
2023/06/08 06:56:38;;;;;;;1.60;1.20;;;20.50;45.40;;;;;;5083995;28;20571;-79
2023/06/08 06:59:04;;;;;;;1.23;1.13;;;20.60;45.60;;;;;;5084332;28;20157;-80
2023/06/08 07:01:35;;;;;;;1.65;1.23;;;20.60;45.70;;;;;;5083849;28;20185;-80
2023/06/08 07:04:03;;;;;;;1.27;1.17;;;20.60;45.90;;;;;;5102014;28;20145;-79
2023/06/08 07:06:30;;;;;;;1.75;1.17;;;20.60;46.20;;;;;;5067404;28;20168;-80
2023/06/08 07:08:56;;;;;;;1.42;1.30;;;20.60;46.50;;;;;;5085135;28;20187;-81
2023/06/08 07:11:22;;;;;;;1.20;1.10;;;20.60;46.20;;;;;;5084787;28;20153;-80
2023/06/08 07:13:48;;;;;;;1.45;1.30;;;20.60;46.40;;;;;;5084602;28;20145;-82
2023/06/08 07:16:13;;;;;;;2.72;1.70;;;20.50;46.80;;;;;;5068844;28;20299;-80
2023/06/08 07:18:39;;;;;;;1.33;1.20;;;20.60;46.80;;;;;;5084358;28;20164;-80
2023/06/08 07:21:05;;;;;;;1.17;1.08;;;20.60;47.00;;;;;;5083256;28;20141;-79
2023/06/08 07:23:31;;;;;;;1.40;1.30;;;20.70;46.80;;;;;;5097454;28;20249;-83
2023/06/08 07:25:59;;;;;;;1.45;1.35;;;20.60;46.90;;;;;;5102726;28;20661;-81
2023/06/08 07:28:25;;;;;;;1.48;1.38;;;20.60;47.00;;;;;;5101750;28;20160;-83
2023/06/08 07:30:52;;;;;;;1.30;1.20;;;20.60;46.90;;;;;;5087269;28;20163;-83
2023/06/08 07:33:19;;;;;;;1.40;1.30;;;20.60;46.90;;;;;;5084030;27;20559;-80
2023/06/08 07:35:45;;;;;;;1.30;1.20;;;20.60;47.30;;;;;;5104581;27;20215;-83
2023/06/08 07:38:11;;;;;;;1.30;1.20;;;20.60;47.30;;;;;;5104400;27;20174;-83
2023/06/08 07:40:36;;;;;;;1.13;1.02;;;20.60;48.00;;;;;;5104900;27;20163;-84
2023/06/08 07:43:02;;;;;;;1.27;1.10;;;20.60;47.30;;;;;;5104931;27;20267;-80
2023/06/08 07:45:27;;;;;;;2.83;1.48;;;20.60;47.40;;;;;;5122235;27;20167;-80
2023/06/08 07:47:56;;;;;;;1.52;1.38;;;20.60;47.70;;;;;;5106073;27;20212;-81
2023/06/08 07:50:22;;;;;;;1.40;1.30;;;20.50;48.00;;;;;;5129837;27;20164;-83
2023/06/08 07:52:47;;;;;;;1.40;1.30;;;20.50;48.20;;;;;;5099625;28;20187;-84
2023/06/08 07:55:13;;;;;;;1.55;1.45;;;20.50;48.30;;;;;;5101099;28;20167;-82
2023/06/08 07:57:39;;;;;;;1.77;1.50;;;20.60;48.30;;;;;;5119136;28;20672;-85
2023/06/08 08:00:06;;;;;;;2.08;1.48;;;20.60;48.40;;;;;;5101058;28;20160;-82
2023/06/08 08:02:32;;;;;;;1.45;1.35;;;20.70;49.20;;;;;;5083628;28;20227;-85
2023/06/08 08:04:59;;;;;;;1.58;1.30;;;20.70;48.60;;;;;;5119830;28;20217;-83
2023/06/08 08:07:24;;;;;;;1.75;1.50;;;20.80;48.50;;;;;;5118932;28;20201;-82
2023/06/08 08:09:50;;;;;;;1.35;1.25;;;20.80;48.20;;;;;;5074875;28;20156;-81
2023/06/08 08:12:16;;;;;;;1.75;1.13;;;20.80;48.30;;;;;;5121371;28;20235;-82
2023/06/08 08:14:41;;;;;;;2.33;1.70;;;20.80;48.50;;;;;;5139413;28;20167;-83
2023/06/08 08:17:07;;;;;;;1.52;1.38;;;20.70;48.70;;;;;;5139979;28;20606;-84
2023/06/08 08:19:33;;;;;;;1.80;1.50;;;20.80;49.00;;;;;;5139730;28;20526;-84
2023/06/08 08:21:58;;;;;;;1.60;1.50;;;20.90;48.80;;;;;;5140429;28;20232;-83
2023/06/08 08:24:24;;;;;;;2.80;1.63;;;20.80;48.60;;;;;;5121980;28;20234;-83
2023/06/08 08:26:53;;;;;;;1.48;1.38;;;20.70;48.90;;;;;;5102541;28;20160;-82
2023/06/08 08:29:18;;;;;;;1.67;1.58;;;20.70;49.20;;;;;;5102472;28;20171;-81
2023/06/08 08:31:44;;;;;;;1.70;1.60;;;20.70;49.40;;;;;;5085134;28;20156;-82
2023/06/08 08:34:11;;;;;;;1.60;1.40;;;20.70;49.40;;;;;;5102486;28;20164;-82
2023/06/08 08:36:38;;;;;;;1.65;1.55;;;20.80;49.30;;;;;;5117088;28;20215;-81
2023/06/08 08:39:04;;;;;;;1.60;1.50;;;20.80;49.40;;;;;;5120655;28;20187;-82
2023/06/08 08:41:29;;;;;;;2.92;1.88;;;20.80;49.50;;;;;;5103779;28;20176;-82
2023/06/08 08:44:01;;;;;;;1.70;1.60;;;20.70;49.40;;;;;;5123241;28;20692;-82
2023/06/08 08:46:28;;;;;;;1.73;1.63;;;20.70;49.70;;;;;;5093177;28;20176;-81
2023/06/08 08:48:57;;;;;;;2.85;1.60;;;20.80;49.70;;;;;;5103243;28;20511;-81
2023/06/08 08:51:25;;;;;;;2.00;1.80;;;20.80;49.80;;;;;;5089207;28;20646;-83
2023/06/08 08:53:51;;;;;;;3.25;1.65;;;20.70;49.80;;;;;;5105572;28;20172;-83
2023/06/08 08:56:20;;;;;;;1.65;1.55;;;20.70;50.10;;;;;;5107468;28;20160;-81
2023/06/08 08:58:52;;;;;;;2.00;1.80;;;20.60;50.20;;;;;;5098688;28;20178;-82
2023/06/08 09:01:18;;;;;;;1.83;1.70;;;20.70;50.20;;;;;;5123045;28;20510;-82
2023/06/08 09:03:46;;;;;;;1.70;1.60;;;20.70;50.20;;;;;;5122127;28;20156;-83
2023/06/08 09:06:11;;;;;;;3.03;1.80;;;20.70;50.30;;;;;;5087448;28;20174;-83
2023/06/08 09:08:38;;;;;;;1.70;1.60;;;20.70;50.40;;;;;;5087401;28;20235;-82
2023/06/08 09:11:05;;;;;;;3.05;1.70;;;20.70;50.50;;;;;;5086309;28;20185;-84
2023/06/08 09:13:32;;;;;;;2.17;1.95;;;20.80;50.50;;;;;;5103992;28;20184;-82
2023/06/08 09:16:16;;;;;;;1.92;1.65;;;20.80;50.20;;;;;;5087036;28;20527;-82
2023/06/08 09:18:43;;;;;;;2.58;2.10;;;20.80;50.30;;;;;;5103698;28;20156;-82
2023/06/08 09:21:24;;;;;;;1.83;1.65;;;20.80;50.40;;;;;;5102925;28;20163;-83
2023/06/08 09:24:04;;;;;;;2.22;1.98;;;20.80;50.50;;;;;;5121041;28;20225;-82
2023/06/08 09:26:32;;;;;;;1.67;1.58;;;20.90;50.50;;;;;;5088311;28;20167;-82
2023/06/08 09:29:00;;;;;;;3.08;1.70;;;20.90;50.30;;;;;;5089170;28;20168;-81
2023/06/08 09:31:29;;;;;;;1.67;1.58;;;20.90;50.30;;;;;;5107002;28;20229;-82
2023/06/08 09:34:10;;;;;;;2.65;1.60;;;20.80;50.50;;;;;;5107751;28;20140;-83
2023/06/08 09:36:38;;;;;;;2.30;1.63;;;20.90;50.40;;;;;;5105895;28;20286;-82
2023/06/08 09:39:07;;;;;;;2.33;1.80;;;20.90;50.40;;;;;;5086393;28;20185;-84
2023/06/08 09:41:37;;;;;;;1.70;1.60;;;20.90;50.50;;;;;;5103036;28;20155;-84
2023/06/08 09:44:15;;;;;;;1.83;1.73;;;20.90;50.60;;;;;;5086577;28;20254;-83
2023/06/08 09:46:45;;;;;;;1.67;1.58;;;20.90;50.60;;;;;;5105061;28;20616;-82
2023/06/08 09:49:13;;;;;;;2.47;1.80;;;21.00;50.40;;;;;;5103583;28;20149;-82
2023/06/08 09:51:41;;;;;;;2.72;1.77;;;21.00;50.40;;;;;;5102052;28;20163;-84
2023/06/08 09:54:06;;;;;;;1.88;1.77;;;21.00;50.70;;;;;;5102766;28;20152;-82
2023/06/08 09:56:32;;;;;;;3.03;1.90;;;21.00;50.60;;;;;;5101944;28;20513;-84
2023/06/08 09:59:02;;;;;;;2.08;1.80;;;20.90;50.80;;;;;;5103088;28;20164;-82
2023/06/08 10:01:40;;;;;;;2.10;1.85;;;20.80;50.70;;;;;;5102303;28;20623;-83
2023/06/08 10:04:20;;;;;;;2.15;1.50;;;20.90;51.00;;;;;;5102865;28;20175;-82
2023/06/08 10:06:46;;;;;;;2.13;1.88;;;20.80;50.80;;;;;;5102611;28;20195;-84
2023/06/08 10:09:12;;;;;;;1.65;1.50;;;20.90;51.00;;;;;;5100414;28;20157;-83
2023/06/08 10:11:38;;;;;;;1.77;1.67;;;20.80;51.00;;;;;;5103082;28;20156;-82
2023/06/08 10:14:03;;;;;;;2.22;1.90;;;20.80;51.80;;;;;;5119121;28;20191;-82
2023/06/08 10:16:29;;;;;;;1.70;1.60;;;20.90;51.20;;;;;;5084569;28;20259;-82
2023/06/08 10:18:55;;;;;;;1.60;1.50;;;20.90;51.00;;;;;;5102298;28;20157;-83
2023/06/08 10:21:21;;;;;;;1.83;1.70;;;20.90;50.90;;;;;;5103405;28;20251;-82
2023/06/08 10:23:47;;;;;;;1.52;1.42;;;20.90;50.90;;;;;;5069070;28;20524;-82
2023/06/08 10:26:13;;;;;;;2.30;1.60;;;20.90;51.00;;;;;;5100577;28;20157;-82
2023/06/08 10:29:02;;;;;;;1.67;1.50;;;20.90;51.00;;;;;;5100139;28;20645;-83
2023/06/08 10:31:31;;;;;;;1.80;1.70;;;20.90;51.00;;;;;;5082656;28;20630;-82
2023/06/08 10:33:58;;;;;;;1.65;1.55;;;20.90;51.00;;;;;;5099878;28;20164;-82
2023/06/08 10:36:34;;;;;;;1.60;1.50;;;20.90;51.10;;;;;;5082909;28;20255;-82
2023/06/08 10:39:04;;;;;;;2.08;1.92;;;20.80;51.30;;;;;;4998170;28;20640;-82
2023/06/08 10:41:43;;;;;;;1.90;1.40;;;20.80;51.40;;;;;;4999300;28;20203;-82
2023/06/08 10:45:02;;;;;;;1.98;1.77;;;20.90;51.30;;;;;;5016463;28;20179;-84
2023/06/08 10:47:12;;;;;;;3.30;1.80;;;21.00;51.00;;;;;;5008217;28;20604;-84
2023/06/08 10:49:38;;;;;;;1.60;1.45;;;20.90;51.10;;;;;;5017397;28;20183;-83
2023/06/08 10:52:45;;;;;;;2.28;1.80;;;20.90;51.10;;;;;;5001820;28;20261;-82
2023/06/08 10:55:16;;;;;;;2.42;1.90;;;20.90;51.20;;;;;;5017841;28;20554;-82
2023/06/08 10:57:49;;;;;;;1.88;1.73;;;21.00;51.10;;;;;;5016933;28;20155;-84
2023/06/08 11:00:42;;;;;;;1.70;1.60;;;20.90;51.20;;;;;;5015858;28;20183;-84
2023/06/08 11:03:09;;;;;;;2.15;1.50;;;20.80;51.40;;;;;;4995885;28;20202;-84
2023/06/08 11:05:39;;;;;;;1.50;1.40;;;20.90;51.40;;;;;;5015931;28;20234;-84
2023/06/08 11:08:07;;;;;;;1.77;1.67;;;20.80;51.50;;;;;;5015516;28;20159;-84
2023/06/08 11:10:33;;;;;;;1.60;1.50;;;20.70;51.80;;;;;;5091750;28;20546;-83
2023/06/08 11:13:20;;;;;;;2.33;1.50;;;20.70;52.00;;;;;;5082782;28;20175;-84
2023/06/08 11:16:25;;;;;;;1.70;1.55;;;20.60;52.10;;;;;;4997825;28;20182;-82
2023/06/08 11:19:10;;;;;;;;;;;;;;;;;;;;;
2023/06/08 11:21:36;;;;;;;2.45;1.83;;;20.50;52.30;;;;;;4880861;29;20181;-84
2023/06/08 11:24:02;;;;;;;2.70;1.75;;;20.50;52.40;;;;;;4922244;29;20257;-84
2023/06/08 11:26:28;;;;;;;3.65;1.73;;;20.50;52.50;;;;;;4922964;29;20603;-82
2023/06/08 11:30:01;;;;;;;1.35;1.25;;;20.50;52.50;;;;;;4939648;29;20161;-82
2023/06/08 11:32:15;;;;;;;2.28;1.60;;;20.40;52.50;;;;;;4927968;29;20426;-83
2023/06/08 11:34:45;;;;;;;4.15;1.88;;;20.40;52.40;;;;;;4937925;29;21336;-81
2023/06/08 11:37:16;;;;;;;1.63;1.45;;;20.50;52.60;;;;;;4953303;29;20237;-83
2023/06/08 11:39:44;;;;;;;1.63;1.50;;;20.60;52.30;;;;;;4938441;29;20245;-82
2023/06/08 11:42:10;;;;;;;2.25;1.58;;;20.50;52.30;;;;;;4954372;29;20205;-83
2023/06/08 11:44:41;;;;;;;2.22;1.40;;;20.40;52.40;;;;;;4938728;29;20185;-82
2023/06/08 11:47:08;;;;;;;1.63;1.52;;;20.40;52.60;;;;;;4991292;28;20525;-84
2023/06/08 11:49:53;;;;;;;1.80;1.50;;;20.40;52.60;;;;;;5000706;28;20171;-83
2023/06/08 11:52:23;;;;;;;1.70;1.60;;;20.30;52.70;;;;;;5016365;28;20599;-84
2023/06/08 11:54:52;;;;;;;1.92;1.50;;;20.30;52.70;;;;;;5000376;28;20269;-81
2023/06/08 11:57:18;;;;;;;1.90;1.70;;;20.30;52.70;;;;;;5016527;28;20163;-84
2023/06/08 11:59:46;;;;;;;2.78;1.48;;;20.40;52.60;;;;;;5018280;28;20173;-83
2023/06/08 12:02:12;;;;;;;1.83;1.40;;;20.40;52.60;;;;;;5002009;28;20202;-81
2023/06/08 12:05:23;;;;;;;2.13;1.75;;;20.30;52.60;;;;;;5002229;28;20236;-84
2023/06/08 12:07:30;;;;;;;1.55;1.40;;;20.30;52.70;;;;;;5016801;28;20175;-82
2023/06/08 12:09:56;;;;;;;2.30;1.50;;;20.40;52.60;;;;;;5006065;28;20228;-82
2023/06/08 12:12:29;;;;;;;2.47;1.35;;;20.30;52.40;;;;;;5022023;28;20181;-85
2023/06/08 12:14:55;;;;;;;1.67;1.58;;;20.30;52.30;;;;;;5093831;28;20211;-80
2023/06/08 12:17:25;;;;;;;1.67;1.52;;;20.20;52.10;;;;;;5104322;28;20160;-82
2023/06/08 12:19:51;;;;;;;5.80;1.63;;;20.30;52.40;;;;;;5101921;28;20171;-85
2023/06/08 12:22:18;;;;;;;1.60;1.50;;;20.30;52.10;;;;;;5083449;28;20210;-84
2023/06/08 12:24:45;;;;;;;3.15;1.58;;;20.30;52.10;;;;;;5101363;28;20242;-82
2023/06/08 12:27:29;;;;;;;3.13;1.90;;;20.20;51.90;;;;;;5082840;28;20556;-84
2023/06/08 12:29:56;;;;;;;2.00;1.80;;;20.30;51.90;;;;;;5102033;28;20201;-84
2023/06/08 12:32:23;;;;;;;1.88;1.65;;;20.30;51.80;;;;;;5082408;28;20236;-82
2023/06/08 12:34:48;;;;;;;2.13;1.92;;;20.20;51.50;;;;;;5102171;27;20230;-83
2023/06/08 12:37:14;;;;;;;2.55;1.95;;;20.30;51.40;;;;;;5153382;27;20178;-84
2023/06/08 12:39:40;;;;;;;2.03;1.77;;;20.40;51.40;;;;;;5153130;27;21033;-84
2023/06/08 12:42:06;;;;;;;1.85;1.67;;;20.30;51.40;;;;;;5117911;28;20191;-83
2023/06/08 12:44:32;;;;;;;2.85;2.00;;;20.30;51.40;;;;;;5136479;28;20215;-82
2023/06/08 12:47:02;;;;;;;3.22;2.00;;;20.30;51.20;;;;;;5134245;28;20234;-82
2023/06/08 12:49:30;;;;;;;3.60;1.50;;;20.30;51.20;;;;;;5151328;27;20278;-83
2023/06/08 12:51:56;;;;;;;2.75;2.00;;;20.30;50.90;;;;;;5134538;28;20250;-83
2023/06/08 12:54:21;;;;;;;1.58;1.48;;;20.30;50.80;;;;;;5134951;28;20194;-83